Flight Track Log - Related Links

Times and Time Zones

All times are in EDT time to prevent confusion due to time zone crossing. See the SKW5564 flight status page for this flight to view local times or setup timezone preferences in your user account.

Time Position Orientation Groundspeed Altitude Reporting Facility
EDT Latitude Longitude Course Direction KTS MPH feet Rate Location/Type
Sat 12:20:00 AM 40.2044 -104.4996 21° North  Level Estimated
Sat 12:21:00 AM 40.3186 -104.4414 21° North  Level Estimated
Sat 12:22:00 AM 40.4328 -104.3830 21° North  Level Estimated
Sat 12:23:00 AM 40.5469 -104.3243 21° North  Level Estimated
Sat 12:24:00 AM 40.6610 -104.2655 21° North  Level Estimated
Sat 12:25:00 AM 40.7751 -104.2065 21° North  Level Estimated
Sat 12:26:00 AM 40.8891 -104.1472 21° North  Level Estimated
Sat 12:27:00 AM 41.0031 -104.0878 21° North  Level Estimated
Sat 12:28:00 AM 41.1171 -104.0282 22° Northeast  Level Estimated
Sat 12:29:00 AM 41.2310 -103.9683 22° Northeast  Level Estimated
Sat 12:30:00 AM 41.3450 -103.9082 22° Northeast  Level Estimated
Sat 12:31:00 AM 41.4589 -103.8480 22° Northeast  Level Estimated
Sat 12:32:00 AM 41.5727 -103.7875 22° Northeast  Level Estimated
Sat 12:33:00 AM 41.6866 -103.7268 22° Northeast  Level Estimated
Sat 12:34:00 AM 41.8003 -103.6659 22° Northeast  Level Estimated
Sat 12:35:00 AM 41.9141 -103.6048 22° Northeast  Level Estimated
Sat 12:36:00 AM 42.0278 -103.5434 22° Northeast  Level Estimated
Sat 12:37:00 AM 42.1415 -103.4818 22° Northeast  Level Estimated
Sat 12:38:00 AM 42.2552 -103.4200 22° Northeast  Level Estimated
Sat 12:39:00 AM 42.3688 -103.3580 22° Northeast  Level Estimated
Sat 12:40:00 AM 42.4824 -103.2958 22° Northeast  Level Estimated
Sat 12:41:00 AM 42.5960 -103.2333 22° Northeast  Level Estimated
Sat 12:42:00 AM 42.7095 -103.1706 22° Northeast  Level Estimated
Sat 12:43:00 AM 42.8230 -103.1077 22° Northeast  Level Estimated
Sat 12:44:00 AM 42.9365 -103.0446 22° Northeast  Level Estimated
Sat 12:45:00 AM 43.0499 -102.9812 22° Northeast  Level Estimated
Sat 12:46:00 AM 43.1633 -102.9176 22° Northeast  Level Estimated
Sat 12:47:00 AM 43.2766 -102.8537 22° Northeast  Level Estimated
Sat 12:48:00 AM 43.3899 -102.7896 22° Northeast  Level Estimated
Sat 12:49:00 AM 43.5032 -102.7253 22° Northeast  Level Estimated
Sat 12:50:00 AM 43.6165 -102.6607 22° Northeast  Level Estimated
Sat 12:51:00 AM 43.7297 -102.5959 22° Northeast  Level Estimated
Sat 12:52:00 AM 43.8428 -102.5308 23° Northeast  Level Estimated
Sat 12:53:00 AM 43.9560 -102.4655 23° Northeast  Level Estimated
Sat 12:54:00 AM 44.0691 -102.3999 23° Northeast  Level Estimated
Sat 12:55:00 AM 44.1822 -102.3341 23° Northeast  Level Estimated
Sat 12:56:00 AM 44.2952 -102.2680 23° Northeast  Level Estimated
Sat 12:57:00 AM 44.4082 -102.2017 23° Northeast  Level Estimated
Sat 12:58:00 AM 44.5211 -102.1351 23° Northeast  Level Estimated
Sat 12:59:00 AM 44.6340 -102.0683 23° Northeast  Level Estimated
Sat 01:00:00 AM 44.7469 -102.0012 23° Northeast  Level Estimated
Sat 01:01:00 AM 44.8597 -101.9338 23° Northeast  Level Estimated
Sat 01:02:00 AM 44.9725 -101.8662 23° Northeast  Level Estimated
Sat 01:03:00 AM 45.0853 -101.7983 23° Northeast  Level Estimated
Sat 01:04:00 AM 45.1980 -101.7302 23° Northeast  Level Estimated
Sat 01:05:00 AM 45.3106 -101.6617 23° Northeast  Level Estimated
Sat 01:06:00 AM 45.4233 -101.5930 23° Northeast  Level Estimated
Sat 01:07:00 AM 45.5359 -101.5240 23° Northeast  Level Estimated
Sat 01:08:00 AM 45.6484 -101.4548 23° Northeast  Level Estimated
Sat 01:09:00 AM 45.7609 -101.3853 23° Northeast  Level Estimated
Sat 01:10:00 AM 45.8734 -101.3155 23° Northeast  Level Estimated
Sat 01:11:00 AM 45.9858 -101.2454 23° Northeast  Level Estimated
Sat 01:12:00 AM 46.0981 -101.1750 23° Northeast  Level Estimated
Sat 01:13:00 AM 46.2105 -101.1043 24° Northeast  Level Estimated
Sat 01:14:00 AM 46.3228 -101.0333 24° Northeast  Level Estimated
Sat 01:15:00 AM 46.4350 -100.9621 24° Northeast  Level Estimated
Sat 01:16:00 AM 46.5472 -100.8905 24° Northeast  Level Estimated
Sat 01:17:00 AM 46.6594 -100.8187 24° Northeast  Level Estimated
Sat 01:18:00 AM 46.7715 -100.7466 24° Northeast  Level Estimated
Sat 01:19:00 AM 46.7727 -100.7458 24° Northeast  Level Estimated
Sat 01:20:00 AM 46.7727 -100.7458 North  Level Estimated
Sat 01:21:00 AM 46.7727 -100.7458 North  Level Estimated
Sat 01:22:00 AM 46.7727 -100.7458 North  Level Estimated
Sat 01:23:00 AM 46.7727 -100.7458 North  Level Estimated
Sat 01:24:00 AM 46.7727 -100.7458 North  Level Estimated
Sat 01:25:00 AM 46.7727 -100.7458 North  Level Estimated
Sat 01:26:00 AM 46.7727 -100.7458 North  Level Estimated
Sat 01:27:00 AM 46.7727 -100.7458 North  Level Estimated

Login

Don't have an account? Register now (free) for customized features, flight alerts, and more!